sensor_id;sensor_type;location;lat;lon;timestamp;P1;durP1;ratioP1;P2;durP2;ratioP2
44606;SDS011;30315;46.072;14.474;2023-02-28T00:01:31;9.60;;;8.70;;
44606;SDS011;30315;46.072;14.474;2023-02-28T00:03:59;10.32;;;9.32;;
44606;SDS011;30315;46.072;14.474;2023-02-28T00:06:26;10.23;;;8.93;;
44606;SDS011;30315;46.072;14.474;2023-02-28T00:08:53;12.50;;;9.43;;
44606;SDS011;30315;46.072;14.474;2023-02-28T00:11:21;11.80;;;9.27;;
44606;SDS011;30315;46.072;14.474;2023-02-28T00:13:48;9.38;;;8.45;;
44606;SDS011;30315;46.072;14.474;2023-02-28T00:16:17;10.15;;;9.07;;
44606;SDS011;30315;46.072;14.474;2023-02-28T00:18:46;11.60;;;9.15;;
44606;SDS011;30315;46.072;14.474;2023-02-28T00:21:14;10.95;;;9.88;;
44606;SDS011;30315;46.072;14.474;2023-02-28T00:23:42;10.20;;;8.23;;
44606;SDS011;30315;46.072;14.474;2023-02-28T00:26:10;8.98;;;8.18;;
44606;SDS011;30315;46.072;14.474;2023-02-28T00:31:07;9.48;;;8.57;;
44606;SDS011;30315;46.072;14.474;2023-02-28T00:33:34;11.40;;;9.25;;
44606;SDS011;30315;46.072;14.474;2023-02-28T00:36:02;9.95;;;8.95;;
44606;SDS011;30315;46.072;14.474;2023-02-28T00:38:30;9.70;;;8.73;;
44606;SDS011;30315;46.072;14.474;2023-02-28T00:40:59;10.67;;;9.67;;
44606;SDS011;30315;46.072;14.474;2023-02-28T00:43:34;9.27;;;8.30;;
44606;SDS011;30315;46.072;14.474;2023-02-28T00:46:03;9.63;;;7.95;;
44606;SDS011;30315;46.072;14.474;2023-02-28T00:48:31;9.45;;;8.55;;
44606;SDS011;30315;46.072;14.474;2023-02-28T00:50:58;9.32;;;8.32;;
44606;SDS011;30315;46.072;14.474;2023-02-28T00:53:26;10.52;;;9.02;;
44606;SDS011;30315;46.072;14.474;2023-02-28T00:55:53;8.90;;;8.10;;
44606;SDS011;30315;46.072;14.474;2023-02-28T00:58:20;10.25;;;8.90;;
44606;SDS011;30315;46.072;14.474;2023-02-28T01:00:47;9.85;;;8.88;;
44606;SDS011;30315;46.072;14.474;2023-02-28T01:03:18;10.20;;;9.27;;
44606;SDS011;30315;46.072;14.474;2023-02-28T01:05:48;9.05;;;8.15;;
44606;SDS011;30315;46.072;14.474;2023-02-28T01:08:15;9.05;;;8.20;;
44606;SDS011;30315;46.072;14.474;2023-02-28T01:10:42;11.90;;;9.40;;
44606;SDS011;30315;46.072;14.474;2023-02-28T01:13:10;12.68;;;9.23;;
44606;SDS011;30315;46.072;14.474;2023-02-28T01:15:38;10.43;;;8.98;;
44606;SDS011;30315;46.072;14.474;2023-02-28T01:18:10;9.88;;;8.80;;
44606;SDS011;30315;46.072;14.474;2023-02-28T01:20:38;8.95;;;8.25;;
44606;SDS011;30315;46.072;14.474;2023-02-28T01:23:05;9.02;;;8.07;;
44606;SDS011;30315;46.072;14.474;2023-02-28T01:25:36;13.07;;;9.65;;
44606;SDS011;30315;46.072;14.474;2023-02-28T01:28:06;12.60;;;8.98;;
44606;SDS011;30315;46.072;14.474;2023-02-28T01:30:33;10.82;;;9.10;;
44606;SDS011;30315;46.072;14.474;2023-02-28T01:33:00;9.65;;;8.75;;
44606;SDS011;30315;46.072;14.474;2023-02-28T01:35:27;10.07;;;8.85;;
44606;SDS011;30315;46.072;14.474;2023-02-28T01:37:55;10.07;;;9.05;;
44606;SDS011;30315;46.072;14.474;2023-02-28T01:40:30;9.90;;;8.95;;
44606;SDS011;30315;46.072;14.474;2023-02-28T01:42:56;9.60;;;8.68;;
44606;SDS011;30315;46.072;14.474;2023-02-28T01:45:30;11.07;;;9.82;;
44606;SDS011;30315;46.072;14.474;2023-02-28T01:47:58;10.23;;;8.90;;
44606;SDS011;30315;46.072;14.474;2023-02-28T01:50:30;10.25;;;9.15;;
44606;SDS011;30315;46.072;14.474;2023-02-28T01:53:04;10.18;;;9.07;;
44606;SDS011;30315;46.072;14.474;2023-02-28T01:55:33;11.45;;;9.27;;
44606;SDS011;30315;46.072;14.474;2023-02-28T01:58:02;11.52;;;9.30;;
44606;SDS011;30315;46.072;14.474;2023-02-28T02:00:32;11.25;;;8.75;;
44606;SDS011;30315;46.072;14.474;2023-02-28T02:03:01;10.98;;;9.40;;
44606;SDS011;30315;46.072;14.474;2023-02-28T02:05:36;13.50;;;9.40;;
44606;SDS011;30315;46.072;14.474;2023-02-28T02:08:08;11.57;;;8.55;;
44606;SDS011;30315;46.072;14.474;2023-02-28T02:10:43;11.57;;;9.45;;
44606;SDS011;30315;46.072;14.474;2023-02-28T02:27:05;10.55;;;9.35;;
44606;SDS011;30315;46.072;14.474;2023-02-28T02:35:43;11.77;;;9.80;;
44606;SDS011;30315;46.072;14.474;2023-02-28T02:38:32;10.88;;;9.05;;
44606;SDS011;30315;46.072;14.474;2023-02-28T02:41:10;11.27;;;9.60;;
44606;SDS011;30315;46.072;14.474;2023-02-28T02:46:32;11.48;;;8.95;;
44606;SDS011;30315;46.072;14.474;2023-02-28T02:49:02;10.20;;;9.07;;
44606;SDS011;30315;46.072;14.474;2023-02-28T02:51:34;10.90;;;9.77;;
44606;SDS011;30315;46.072;14.474;2023-02-28T02:54:13;12.17;;;9.17;;
44606;SDS011;30315;46.072;14.474;2023-02-28T02:56:49;10.70;;;9.70;;
44606;SDS011;30315;46.072;14.474;2023-02-28T02:59:18;10.75;;;9.30;;
44606;SDS011;30315;46.072;14.474;2023-02-28T03:01:52;10.13;;;9.00;;
44606;SDS011;30315;46.072;14.474;2023-02-28T03:04:22;10.20;;;9.10;;
44606;SDS011;30315;46.072;14.474;2023-02-28T03:06:51;10.60;;;9.45;;
44606;SDS011;30315;46.072;14.474;2023-02-28T03:09:24;12.48;;;9.38;;
44606;SDS011;30315;46.072;14.474;2023-02-28T03:11:53;10.63;;;9.35;;
44606;SDS011;30315;46.072;14.474;2023-02-28T03:14:29;13.63;;;9.68;;
44606;SDS011;30315;46.072;14.474;2023-02-28T03:17:09;9.85;;;8.95;;
44606;SDS011;30315;46.072;14.474;2023-02-28T03:31:32;12.10;;;9.07;;
44606;SDS011;30315;46.072;14.474;2023-02-28T03:34:09;12.80;;;9.38;;
44606;SDS011;30315;46.072;14.474;2023-02-28T03:36:38;12.55;;;9.32;;
44606;SDS011;30315;46.072;14.474;2023-02-28T03:39:14;10.57;;;9.10;;
44606;SDS011;30315;46.072;14.474;2023-02-28T03:41:48;10.50;;;9.10;;
44606;SDS011;30315;46.072;14.474;2023-02-28T03:44:22;9.85;;;8.85;;
44606;SDS011;30315;46.072;14.474;2023-02-28T03:47:06;11.57;;;9.45;;
44606;SDS011;30315;46.072;14.474;2023-02-28T03:49:53;10.25;;;8.95;;
44606;SDS011;30315;46.072;14.474;2023-02-28T03:52:25;9.70;;;8.75;;
44606;SDS011;30315;46.072;14.474;2023-02-28T03:54:58;10.93;;;9.93;;
44606;SDS011;30315;46.072;14.474;2023-02-28T04:00:40;10.15;;;9.10;;
44606;SDS011;30315;46.072;14.474;2023-02-28T04:03:14;11.93;;;10.68;;
44606;SDS011;30315;46.072;14.474;2023-02-28T04:06:02;11.38;;;10.02;;
44606;SDS011;30315;46.072;14.474;2023-02-28T04:08:32;10.48;;;9.48;;
44606;SDS011;30315;46.072;14.474;2023-02-28T04:11:06;10.57;;;9.45;;
44606;SDS011;30315;46.072;14.474;2023-02-28T04:13:46;10.75;;;9.65;;
44606;SDS011;30315;46.072;14.474;2023-02-28T04:16:13;9.32;;;8.43;;
44606;SDS011;30315;46.072;14.474;2023-02-28T04:18:59;10.52;;;9.40;;
44606;SDS011;30315;46.072;14.474;2023-02-28T04:21:32;10.68;;;9.45;;
44606;SDS011;30315;46.072;14.474;2023-02-28T04:24:08;10.35;;;9.38;;
44606;SDS011;30315;46.072;14.474;2023-02-28T04:26:41;10.80;;;9.25;;
44606;SDS011;30315;46.072;14.474;2023-02-28T04:29:12;10.00;;;9.00;;
44606;SDS011;30315;46.072;14.474;2023-02-28T04:31:41;9.77;;;8.88;;
44606;SDS011;30315;46.072;14.474;2023-02-28T04:34:08;12.70;;;9.25;;
44606;SDS011;30315;46.072;14.474;2023-02-28T04:36:35;12.88;;;10.63;;
44606;SDS011;30315;46.072;14.474;2023-02-28T04:39:04;11.38;;;9.82;;
44606;SDS011;30315;46.072;14.474;2023-02-28T04:41:31;9.80;;;8.90;;
44606;SDS011;30315;46.072;14.474;2023-02-28T04:43:59;11.00;;;9.77;;
44606;SDS011;30315;46.072;14.474;2023-02-28T04:46:26;10.52;;;9.43;;
44606;SDS011;30315;46.072;14.474;2023-02-28T04:48:53;13.15;;;9.35;;
44606;SDS011;30315;46.072;14.474;2023-02-28T04:51:21;10.48;;;9.48;;
44606;SDS011;30315;46.072;14.474;2023-02-28T04:53:49;10.20;;;9.18;;
44606;SDS011;30315;46.072;14.474;2023-02-28T04:56:16;11.60;;;9.65;;
44606;SDS011;30315;46.072;14.474;2023-02-28T04:58:45;12.85;;;9.95;;
44606;SDS011;30315;46.072;14.474;2023-02-28T05:03:48;11.88;;;9.82;;
44606;SDS011;30315;46.072;14.474;2023-02-28T05:06:17;12.52;;;9.95;;
44606;SDS011;30315;46.072;14.474;2023-02-28T05:08:45;10.82;;;9.68;;
44606;SDS011;30315;46.072;14.474;2023-02-28T05:13:47;10.70;;;9.52;;
44606;SDS011;30315;46.072;14.474;2023-02-28T05:16:15;11.90;;;10.70;;
44606;SDS011;30315;46.072;14.474;2023-02-28T05:18:42;11.73;;;9.52;;
44606;SDS011;30315;46.072;14.474;2023-02-28T05:24:03;18.40;;;10.80;;
44606;SDS011;30315;46.072;14.474;2023-02-28T05:26:36;17.00;;;9.65;;
44606;SDS011;30315;46.072;14.474;2023-02-28T05:29:05;11.38;;;10.20;;
44606;SDS011;30315;46.072;14.474;2023-02-28T05:31:32;13.40;;;10.43;;
44606;SDS011;30315;46.072;14.474;2023-02-28T05:34:00;10.88;;;9.45;;
44606;SDS011;30315;46.072;14.474;2023-02-28T05:36:27;11.95;;;10.38;;
44606;SDS011;30315;46.072;14.474;2023-02-28T05:38:54;12.10;;;10.40;;
44606;SDS011;30315;46.072;14.474;2023-02-28T05:41:22;12.07;;;10.88;;
44606;SDS011;30315;46.072;14.474;2023-02-28T05:43:49;11.52;;;10.40;;
44606;SDS011;30315;46.072;14.474;2023-02-28T05:46:19;13.40;;;11.10;;
44606;SDS011;30315;46.072;14.474;2023-02-28T05:48:46;11.85;;;10.65;;
44606;SDS011;30315;46.072;14.474;2023-02-28T05:51:14;14.45;;;11.02;;
44606;SDS011;30315;46.072;14.474;2023-02-28T05:53:42;11.23;;;10.02;;
44606;SDS011;30315;46.072;14.474;2023-02-28T05:56:09;10.60;;;9.60;;
44606;SDS011;30315;46.072;14.474;2023-02-28T05:58:36;19.38;;;13.02;;
44606;SDS011;30315;46.072;14.474;2023-02-28T06:03:53;17.35;;;10.55;;
44606;SDS011;30315;46.072;14.474;2023-02-28T06:06:20;12.95;;;10.35;;
44606;SDS011;30315;46.072;14.474;2023-02-28T06:08:47;13.15;;;10.32;;
44606;SDS011;30315;46.072;14.474;2023-02-28T06:11:14;14.15;;;11.15;;
44606;SDS011;30315;46.072;14.474;2023-02-28T06:13:41;11.80;;;10.57;;
44606;SDS011;30315;46.072;14.474;2023-02-28T06:16:10;11.68;;;10.45;;
44606;SDS011;30315;46.072;14.474;2023-02-28T06:18:38;11.52;;;10.43;;
44606;SDS011;30315;46.072;14.474;2023-02-28T06:21:05;14.77;;;11.02;;
44606;SDS011;30315;46.072;14.474;2023-02-28T06:23:32;14.38;;;10.48;;
44606;SDS011;30315;46.072;14.474;2023-02-28T06:25:59;14.75;;;11.32;;
44606;SDS011;30315;46.072;14.474;2023-02-28T06:28:26;14.63;;;11.25;;
44606;SDS011;30315;46.072;14.474;2023-02-28T06:30:53;14.68;;;11.45;;
44606;SDS011;30315;46.072;14.474;2023-02-28T06:33:20;15.73;;;11.48;;
44606;SDS011;30315;46.072;14.474;2023-02-28T06:35:47;14.95;;;11.27;;
44606;SDS011;30315;46.072;14.474;2023-02-28T06:38:17;14.65;;;11.65;;
44606;SDS011;30315;46.072;14.474;2023-02-28T06:40:44;15.52;;;11.05;;
44606;SDS011;30315;46.072;14.474;2023-02-28T06:43:18;16.38;;;11.95;;
44606;SDS011;30315;46.072;14.474;2023-02-28T06:45:45;16.63;;;11.70;;
44606;SDS011;30315;46.072;14.474;2023-02-28T06:48:12;19.55;;;12.25;;
44606;SDS011;30315;46.072;14.474;2023-02-28T06:50:39;19.77;;;12.55;;
44606;SDS011;30315;46.072;14.474;2023-02-28T06:53:06;17.30;;;12.32;;
44606;SDS011;30315;46.072;14.474;2023-02-28T06:55:33;17.85;;;11.27;;
44606;SDS011;30315;46.072;14.474;2023-02-28T06:58:00;13.25;;;11.32;;
44606;SDS011;30315;46.072;14.474;2023-02-28T07:00:27;15.30;;;12.48;;
44606;SDS011;30315;46.072;14.474;2023-02-28T07:02:54;17.80;;;12.80;;
44606;SDS011;30315;46.072;14.474;2023-02-28T07:05:21;15.50;;;12.38;;
44606;SDS011;30315;46.072;14.474;2023-02-28T07:07:48;17.30;;;12.73;;
44606;SDS011;30315;46.072;14.474;2023-02-28T07:10:15;16.58;;;13.02;;
44606;SDS011;30315;46.072;14.474;2023-02-28T07:12:45;16.42;;;12.30;;
44606;SDS011;30315;46.072;14.474;2023-02-28T07:15:12;18.67;;;12.45;;
44606;SDS011;30315;46.072;14.474;2023-02-28T07:17:39;15.07;;;11.77;;
44606;SDS011;30315;46.072;14.474;2023-02-28T07:20:06;15.35;;;12.15;;
44606;SDS011;30315;46.072;14.474;2023-02-28T07:22:34;15.18;;;11.80;;
44606;SDS011;30315;46.072;14.474;2023-02-28T07:25:01;19.58;;;12.40;;
44606;SDS011;30315;46.072;14.474;2023-02-28T07:27:28;18.40;;;12.85;;
44606;SDS011;30315;46.072;14.474;2023-02-28T07:29:57;16.80;;;12.70;;
44606;SDS011;30315;46.072;14.474;2023-02-28T07:32:27;16.92;;;12.75;;
44606;SDS011;30315;46.072;14.474;2023-02-28T07:34:54;17.30;;;12.95;;
44606;SDS011;30315;46.072;14.474;2023-02-28T07:37:21;16.83;;;13.00;;
44606;SDS011;30315;46.072;14.474;2023-02-28T07:39:48;16.52;;;12.23;;
44606;SDS011;30315;46.072;14.474;2023-02-28T07:42:15;15.68;;;12.55;;
44606;SDS011;30315;46.072;14.474;2023-02-28T07:44:43;24.38;;;15.00;;
44606;SDS011;30315;46.072;14.474;2023-02-28T07:47:10;15.23;;;12.80;;
44606;SDS011;30315;46.072;14.474;2023-02-28T07:49:37;19.48;;;13.27;;
44606;SDS011;30315;46.072;14.474;2023-02-28T07:52:04;18.27;;;13.25;;
44606;SDS011;30315;46.072;14.474;2023-02-28T07:54:33;18.60;;;13.52;;
44606;SDS011;30315;46.072;14.474;2023-02-28T07:57:01;20.65;;;13.35;;
44606;SDS011;30315;46.072;14.474;2023-02-28T07:59:29;17.85;;;12.85;;
44606;SDS011;30315;46.072;14.474;2023-02-28T08:01:57;22.00;;;13.90;;
44606;SDS011;30315;46.072;14.474;2023-02-28T08:04:25;21.52;;;13.38;;
44606;SDS011;30315;46.072;14.474;2023-02-28T08:06:52;16.90;;;13.18;;
44606;SDS011;30315;46.072;14.474;2023-02-28T08:09:19;15.23;;;12.80;;
44606;SDS011;30315;46.072;14.474;2023-02-28T08:11:46;16.23;;;13.30;;
44606;SDS011;30315;46.072;14.474;2023-02-28T08:14:13;19.88;;;14.20;;
44606;SDS011;30315;46.072;14.474;2023-02-28T08:16:40;15.68;;;12.85;;
44606;SDS011;30315;46.072;14.474;2023-02-28T08:19:09;17.63;;;13.13;;
44606;SDS011;30315;46.072;14.474;2023-02-28T08:21:36;19.13;;;13.55;;
44606;SDS011;30315;46.072;14.474;2023-02-28T08:24:03;19.20;;;13.43;;
44606;SDS011;30315;46.072;14.474;2023-02-28T08:26:30;17.88;;;13.30;;
44606;SDS011;30315;46.072;14.474;2023-02-28T08:28:57;16.23;;;12.82;;
44606;SDS011;30315;46.072;14.474;2023-02-28T08:31:26;17.15;;;13.40;;
44606;SDS011;30315;46.072;14.474;2023-02-28T08:33:54;16.40;;;12.95;;
44606;SDS011;30315;46.072;14.474;2023-02-28T08:36:25;17.85;;;13.32;;
44606;SDS011;30315;46.072;14.474;2023-02-28T08:38:56;19.08;;;12.82;;
44606;SDS011;30315;46.072;14.474;2023-02-28T08:41:23;18.73;;;13.23;;
44606;SDS011;30315;46.072;14.474;2023-02-28T08:43:50;17.92;;;13.43;;
44606;SDS011;30315;46.072;14.474;2023-02-28T08:46:17;16.73;;;13.48;;
44606;SDS011;30315;46.072;14.474;2023-02-28T08:48:44;17.45;;;13.73;;
44606;SDS011;30315;46.072;14.474;2023-02-28T08:51:16;16.25;;;12.80;;
44606;SDS011;30315;46.072;14.474;2023-02-28T08:53:47;16.23;;;13.60;;
44606;SDS011;30315;46.072;14.474;2023-02-28T08:56:17;22.05;;;14.20;;
44606;SDS011;30315;46.072;14.474;2023-02-28T08:58:45;18.48;;;13.00;;
44606;SDS011;30315;46.072;14.474;2023-02-28T09:01:13;15.85;;;12.68;;
44606;SDS011;30315;46.072;14.474;2023-02-28T09:03:46;18.80;;;13.23;;
44606;SDS011;30315;46.072;14.474;2023-02-28T09:06:14;16.93;;;13.47;;
44606;SDS011;30315;46.072;14.474;2023-02-28T09:08:42;18.20;;;12.90;;
44606;SDS011;30315;46.072;14.474;2023-02-28T09:11:10;17.50;;;12.75;;
44606;SDS011;30315;46.072;14.474;2023-02-28T09:13:38;21.17;;;13.32;;
44606;SDS011;30315;46.072;14.474;2023-02-28T09:16:06;19.80;;;13.38;;
44606;SDS011;30315;46.072;14.474;2023-02-28T09:18:36;19.17;;;12.43;;
44606;SDS011;30315;46.072;14.474;2023-02-28T09:21:04;15.18;;;12.35;;
44606;SDS011;30315;46.072;14.474;2023-02-28T09:23:32;20.20;;;13.73;;
44606;SDS011;30315;46.072;14.474;2023-02-28T09:26:00;14.23;;;12.00;;
44606;SDS011;30315;46.072;14.474;2023-02-28T09:28:27;16.80;;;12.85;;
44606;SDS011;30315;46.072;14.474;2023-02-28T09:30:54;17.30;;;12.95;;
44606;SDS011;30315;46.072;14.474;2023-02-28T09:33:22;16.88;;;11.23;;
44606;SDS011;30315;46.072;14.474;2023-02-28T09:35:50;15.02;;;12.13;;
44606;SDS011;30315;46.072;14.474;2023-02-28T09:38:17;17.20;;;11.90;;
44606;SDS011;30315;46.072;14.474;2023-02-28T09:43:44;14.15;;;12.07;;
44606;SDS011;30315;46.072;14.474;2023-02-28T09:46:44;14.88;;;11.77;;
44606;SDS011;30315;46.072;14.474;2023-02-28T09:49:16;13.60;;;11.38;;
44606;SDS011;30315;46.072;14.474;2023-02-28T09:51:47;12.57;;;11.25;;
44606;SDS011;30315;46.072;14.474;2023-02-28T09:54:35;13.52;;;11.55;;
44606;SDS011;30315;46.072;14.474;2023-02-28T10:00:06;14.48;;;11.90;;
44606;SDS011;30315;46.072;14.474;2023-02-28T10:02:49;15.02;;;11.38;;
44606;SDS011;30315;46.072;14.474;2023-02-28T10:05:27;13.38;;;11.57;;
44606;SDS011;30315;46.072;14.474;2023-02-28T10:08:12;14.20;;;10.95;;
44606;SDS011;30315;46.072;14.474;2023-02-28T10:15:49;17.33;;;12.68;;
44606;SDS011;30315;46.072;14.474;2023-02-28T10:18:25;17.85;;;11.73;;
44606;SDS011;30315;46.072;14.474;2023-02-28T10:20:57;13.68;;;10.88;;
44606;SDS011;30315;46.072;14.474;2023-02-28T10:23:26;16.65;;;11.68;;
44606;SDS011;30315;46.072;14.474;2023-02-28T10:26:14;16.23;;;12.23;;
44606;SDS011;30315;46.072;14.474;2023-02-28T10:28:43;14.73;;;11.60;;
44606;SDS011;30315;46.072;14.474;2023-02-28T10:31:18;18.98;;;12.45;;
44606;SDS011;30315;46.072;14.474;2023-02-28T10:33:46;16.48;;;12.10;;
44606;SDS011;30315;46.072;14.474;2023-02-28T10:36:15;15.38;;;12.43;;
44606;SDS011;30315;46.072;14.474;2023-02-28T10:38:45;15.52;;;12.80;;
44606;SDS011;30315;46.072;14.474;2023-02-28T10:41:14;16.00;;;12.52;;
44606;SDS011;30315;46.072;14.474;2023-02-28T10:43:43;18.25;;;13.52;;
44606;SDS011;30315;46.072;14.474;2023-02-28T10:46:15;17.00;;;12.90;;
44606;SDS011;30315;46.072;14.474;2023-02-28T10:49:05;17.23;;;12.97;;
44606;SDS011;30315;46.072;14.474;2023-02-28T10:51:39;18.27;;;13.15;;
44606;SDS011;30315;46.072;14.474;2023-02-28T10:59:44;19.23;;;14.55;;
44606;SDS011;30315;46.072;14.474;2023-02-28T11:05:34;20.27;;;13.43;;
44606;SDS011;30315;46.072;14.474;2023-02-28T11:10:39;15.48;;;13.38;;
44606;SDS011;30315;46.072;14.474;2023-02-28T11:13:16;19.67;;;14.15;;
44606;SDS011;30315;46.072;14.474;2023-02-28T11:15:55;20.05;;;14.13;;
44606;SDS011;30315;46.072;14.474;2023-02-28T11:18:27;15.15;;;13.55;;
44606;SDS011;30315;46.072;14.474;2023-02-28T11:20:57;19.42;;;13.73;;
44606;SDS011;30315;46.072;14.474;2023-02-28T11:23:27;18.17;;;14.27;;
44606;SDS011;30315;46.072;14.474;2023-02-28T11:31:03;17.50;;;14.10;;
44606;SDS011;30315;46.072;14.474;2023-02-28T11:33:53;17.13;;;12.90;;
44606;SDS011;30315;46.072;14.474;2023-02-28T11:36:29;17.52;;;13.57;;
44606;SDS011;30315;46.072;14.474;2023-02-28T11:39:07;19.27;;;13.57;;
44606;SDS011;30315;46.072;14.474;2023-02-28T11:50:11;17.42;;;13.98;;
44606;SDS011;30315;46.072;14.474;2023-02-28T11:52:54;19.13;;;14.20;;
44606;SDS011;30315;46.072;14.474;2023-02-28T11:55:35;21.75;;;15.55;;
44606;SDS011;30315;46.072;14.474;2023-02-28T12:01:14;18.05;;;13.95;;
44606;SDS011;30315;46.072;14.474;2023-02-28T12:06:57;19.10;;;14.77;;
44606;SDS011;30315;46.072;14.474;2023-02-28T12:15:26;17.35;;;14.05;;
44606;SDS011;30315;46.072;14.474;2023-02-28T12:18:14;16.15;;;14.43;;
44606;SDS011;30315;46.072;14.474;2023-02-28T12:20:55;18.55;;;14.55;;
44606;SDS011;30315;46.072;14.474;2023-02-28T12:26:44;21.05;;;15.15;;
44606;SDS011;30315;46.072;14.474;2023-02-28T12:29:19;17.92;;;14.10;;
44606;SDS011;30315;46.072;14.474;2023-02-28T12:34:37;18.85;;;14.35;;
44606;SDS011;30315;46.072;14.474;2023-02-28T12:37:08;19.10;;;13.88;;
44606;SDS011;30315;46.072;14.474;2023-02-28T12:39:41;17.17;;;13.18;;
44606;SDS011;30315;46.072;14.474;2023-02-28T12:42:29;19.70;;;14.65;;
44606;SDS011;30315;46.072;14.474;2023-02-28T12:45:00;17.10;;;13.73;;
44606;SDS011;30315;46.072;14.474;2023-02-28T12:47:31;19.23;;;14.25;;
44606;SDS011;30315;46.072;14.474;2023-02-28T12:49:59;19.55;;;14.38;;
44606;SDS011;30315;46.072;14.474;2023-02-28T12:52:54;19.88;;;14.57;;
44606;SDS011;30315;46.072;14.474;2023-02-28T12:55:40;17.25;;;14.00;;
44606;SDS011;30315;46.072;14.474;2023-02-28T12:58:19;17.52;;;14.02;;
44606;SDS011;30315;46.072;14.474;2023-02-28T13:06:43;13.88;;;12.35;;
44606;SDS011;30315;46.072;14.474;2023-02-28T13:09:19;15.68;;;12.77;;
44606;SDS011;30315;46.072;14.474;2023-02-28T13:11:47;14.80;;;13.13;;
44606;SDS011;30315;46.072;14.474;2023-02-28T13:17:10;18.38;;;13.75;;
44606;SDS011;30315;46.072;14.474;2023-02-28T13:22:38;19.83;;;13.80;;
44606;SDS011;30315;46.072;14.474;2023-02-28T13:28:11;13.88;;;12.32;;
44606;SDS011;30315;46.072;14.474;2023-02-28T13:31:00;14.35;;;12.30;;
44606;SDS011;30315;46.072;14.474;2023-02-28T13:33:35;15.75;;;13.10;;
44606;SDS011;30315;46.072;14.474;2023-02-28T13:36:26;15.63;;;12.98;;
44606;SDS011;30315;46.072;14.474;2023-02-28T13:49:24;17.05;;;14.18;;
44606;SDS011;30315;46.072;14.474;2023-02-28T14:08:52;17.38;;;13.88;;
44606;SDS011;30315;46.072;14.474;2023-02-28T14:11:24;16.25;;;14.13;;
44606;SDS011;30315;46.072;14.474;2023-02-28T14:13:57;19.33;;;15.73;;
44606;SDS011;30315;46.072;14.474;2023-02-28T14:16:26;21.48;;;16.75;;
44606;SDS011;30315;46.072;14.474;2023-02-28T14:19:02;22.00;;;14.35;;
44606;SDS011;30315;46.072;14.474;2023-02-28T14:21:52;22.85;;;15.07;;
44606;SDS011;30315;46.072;14.474;2023-02-28T14:24:26;15.85;;;13.68;;
44606;SDS011;30315;46.072;14.474;2023-02-28T14:32:26;20.63;;;15.00;;
44606;SDS011;30315;46.072;14.474;2023-02-28T14:34:55;17.05;;;15.20;;
44606;SDS011;30315;46.072;14.474;2023-02-28T14:37:42;18.33;;;15.73;;
44606;SDS011;30315;46.072;14.474;2023-02-28T14:40:43;19.70;;;15.13;;
44606;SDS011;30315;46.072;14.474;2023-02-28T14:43:05;18.25;;;14.80;;
44606;SDS011;30315;46.072;14.474;2023-02-28T14:45:48;18.13;;;14.18;;
44606;SDS011;30315;46.072;14.474;2023-02-28T14:48:22;16.65;;;14.02;;
44606;SDS011;30315;46.072;14.474;2023-02-28T14:53:21;18.88;;;14.15;;
44606;SDS011;30315;46.072;14.474;2023-02-28T14:55:51;16.35;;;14.73;;
44606;SDS011;30315;46.072;14.474;2023-02-28T14:58:23;18.80;;;14.45;;
44606;SDS011;30315;46.072;14.474;2023-02-28T15:00:56;18.63;;;15.00;;
44606;SDS011;30315;46.072;14.474;2023-02-28T15:03:32;15.55;;;13.90;;
44606;SDS011;30315;46.072;14.474;2023-02-28T15:06:14;17.05;;;14.27;;
44606;SDS011;30315;46.072;14.474;2023-02-28T15:08:44;17.58;;;15.60;;
44606;SDS011;30315;46.072;14.474;2023-02-28T15:11:15;21.35;;;15.43;;
44606;SDS011;30315;46.072;14.474;2023-02-28T15:13:53;17.10;;;14.52;;
44606;SDS011;30315;46.072;14.474;2023-02-28T15:16:37;20.25;;;14.98;;
44606;SDS011;30315;46.072;14.474;2023-02-28T15:19:12;17.58;;;14.80;;
44606;SDS011;30315;46.072;14.474;2023-02-28T15:21:45;18.75;;;15.55;;
44606;SDS011;30315;46.072;14.474;2023-02-28T15:26:52;18.15;;;14.15;;
44606;SDS011;30315;46.072;14.474;2023-02-28T15:29:27;20.40;;;15.65;;
44606;SDS011;30315;46.072;14.474;2023-02-28T15:32:26;19.98;;;16.08;;
44606;SDS011;30315;46.072;14.474;2023-02-28T15:34:58;18.33;;;16.33;;
44606;SDS011;30315;46.072;14.474;2023-02-28T15:37:46;20.55;;;15.90;;
44606;SDS011;30315;46.072;14.474;2023-02-28T15:40:29;21.85;;;16.58;;
44606;SDS011;30315;46.072;14.474;2023-02-28T15:51:00;24.17;;;16.63;;
44606;SDS011;30315;46.072;14.474;2023-02-28T15:53:33;21.05;;;17.05;;
44606;SDS011;30315;46.072;14.474;2023-02-28T15:56:05;22.02;;;16.90;;
44606;SDS011;30315;46.072;14.474;2023-02-28T15:58:49;20.73;;;16.38;;
44606;SDS011;30315;46.072;14.474;2023-02-28T16:01:25;21.80;;;16.73;;
44606;SDS011;30315;46.072;14.474;2023-02-28T16:03:59;19.98;;;16.00;;
44606;SDS011;30315;46.072;14.474;2023-02-28T16:06:33;22.15;;;16.92;;
44606;SDS011;30315;46.072;14.474;2023-02-28T16:09:14;20.38;;;16.35;;
44606;SDS011;30315;46.072;14.474;2023-02-28T16:11:47;22.45;;;16.42;;
44606;SDS011;30315;46.072;14.474;2023-02-28T16:14:20;20.67;;;16.23;;
44606;SDS011;30315;46.072;14.474;2023-02-28T16:16:50;19.60;;;15.98;;
44606;SDS011;30315;46.072;14.474;2023-02-28T16:19:19;25.17;;;16.77;;
44606;SDS011;30315;46.072;14.474;2023-02-28T16:21:47;22.25;;;16.70;;
44606;SDS011;30315;46.072;14.474;2023-02-28T16:24:14;20.38;;;15.68;;
44606;SDS011;30315;46.072;14.474;2023-02-28T16:26:41;22.30;;;17.17;;
44606;SDS011;30315;46.072;14.474;2023-02-28T16:29:19;23.83;;;16.17;;
44606;SDS011;30315;46.072;14.474;2023-02-28T16:31:53;20.88;;;15.35;;
44606;SDS011;30315;46.072;14.474;2023-02-28T16:34:20;27.40;;;17.25;;
44606;SDS011;30315;46.072;14.474;2023-02-28T16:36:47;21.10;;;17.70;;
44606;SDS011;30315;46.072;14.474;2023-02-28T16:39:15;20.55;;;15.82;;
44606;SDS011;30315;46.072;14.474;2023-02-28T16:41:43;24.25;;;16.40;;
44606;SDS011;30315;46.072;14.474;2023-02-28T16:44:27;20.83;;;16.40;;
44606;SDS011;30315;46.072;14.474;2023-02-28T16:46:59;25.00;;;16.55;;
44606;SDS011;30315;46.072;14.474;2023-02-28T16:49:27;25.60;;;17.02;;
44606;SDS011;30315;46.072;14.474;2023-02-28T16:51:54;24.70;;;18.00;;
44606;SDS011;30315;46.072;14.474;2023-02-28T16:54:21;23.80;;;17.88;;
44606;SDS011;30315;46.072;14.474;2023-02-28T16:56:51;25.00;;;17.67;;
44606;SDS011;30315;46.072;14.474;2023-02-28T16:59:24;22.80;;;17.40;;
44606;SDS011;30315;46.072;14.474;2023-02-28T17:01:53;21.83;;;17.47;;
44606;SDS011;30315;46.072;14.474;2023-02-28T17:04:26;23.90;;;18.98;;
44606;SDS011;30315;46.072;14.474;2023-02-28T17:06:53;23.95;;;17.92;;
44606;SDS011;30315;46.072;14.474;2023-02-28T17:09:21;24.55;;;17.98;;
44606;SDS011;30315;46.072;14.474;2023-02-28T17:11:56;21.73;;;17.55;;
44606;SDS011;30315;46.072;14.474;2023-02-28T17:14:23;23.80;;;17.25;;
44606;SDS011;30315;46.072;14.474;2023-02-28T17:16:50;25.38;;;17.70;;
44606;SDS011;30315;46.072;14.474;2023-02-28T17:19:17;23.52;;;17.65;;
44606;SDS011;30315;46.072;14.474;2023-02-28T17:21:44;25.98;;;18.02;;
44606;SDS011;30315;46.072;14.474;2023-02-28T17:24:12;28.05;;;18.75;;